createdAt,value
2023-05-13T00:03:00.436Z,15.90
2023-05-13T00:08:53.732Z,15.80
2023-05-13T00:14:48.074Z,16.00
2023-05-13T00:20:41.319Z,15.80
2023-05-13T00:26:34.645Z,15.60
2023-05-13T00:32:29.324Z,15.60
2023-05-13T00:38:22.990Z,15.70
2023-05-13T00:44:16.196Z,15.40
2023-05-13T00:50:12.286Z,15.50
2023-05-13T00:56:06.322Z,15.30
2023-05-13T01:02:11.134Z,15.20
2023-05-13T01:08:17.698Z,15.30
2023-05-13T01:14:14.012Z,15.20
2023-05-13T01:20:09.484Z,15.10
2023-05-13T01:26:04.108Z,15.00
2023-05-13T01:32:01.588Z,15.00
2023-05-13T01:37:55.947Z,14.80
2023-05-13T01:43:50.796Z,15.20
2023-05-13T01:49:44.164Z,14.80
2023-05-13T01:55:37.497Z,14.70
2023-05-13T02:01:33.261Z,14.50
2023-05-13T02:07:26.514Z,14.90
2023-05-13T02:13:19.970Z,14.80
2023-05-13T02:19:14.612Z,14.70
2023-05-13T02:25:09.521Z,14.80
2023-05-13T02:31:03.557Z,14.40
2023-05-13T02:36:58.320Z,14.40
2023-05-13T02:42:52.052Z,14.50
2023-05-13T02:48:52.074Z,14.50
2023-05-13T02:54:46.737Z,14.40
2023-05-13T03:00:41.215Z,14.50
2023-05-13T03:06:34.284Z,14.60
2023-05-13T03:12:28.915Z,14.30
2023-05-13T03:18:22.012Z,14.30
2023-05-13T03:24:15.296Z,14.40
2023-05-13T03:30:11.286Z,14.20
2023-05-13T03:36:12.984Z,13.90
2023-05-13T03:42:07.331Z,14.20
2023-05-13T03:48:02.583Z,14.00
2023-05-13T03:53:56.307Z,13.80
2023-05-13T03:59:50.154Z,14.10
2023-05-13T04:05:45.031Z,14.20
2023-05-13T04:11:38.253Z,14.20
2023-05-13T04:17:31.474Z,14.10
2023-05-13T04:23:25.986Z,14.10
2023-05-13T04:29:19.001Z,13.80
2023-05-13T04:35:13.092Z,14.40
2023-05-13T04:41:09.129Z,14.10
2023-05-13T04:47:07.669Z,14.30
2023-05-13T04:53:00.830Z,14.40
2023-05-13T04:58:55.175Z,14.50
2023-05-13T05:04:49.357Z,14.40
2023-05-13T05:10:43.158Z,14.60
2023-05-13T05:16:39.199Z,14.60
2023-05-13T05:22:32.723Z,14.80
2023-05-13T05:28:25.934Z,14.80
2023-05-13T05:34:20.750Z,15.00
2023-05-13T05:40:14.710Z,15.10
2023-05-13T05:46:08.016Z,15.20
2023-05-13T05:52:03.320Z,15.30
2023-05-13T05:57:57.028Z,15.40
2023-05-13T06:03:53.121Z,15.50
2023-05-13T06:09:49.332Z,15.50
2023-05-13T06:15:42.754Z,15.60
2023-05-13T06:21:38.259Z,15.80
2023-05-13T06:27:34.145Z,15.80
2023-05-13T06:33:27.399Z,15.90
2023-05-13T06:39:22.452Z,16.00
2023-05-13T06:45:18.581Z,16.00
2023-05-13T06:51:12.387Z,16.10
2023-05-13T06:57:07.512Z,16.20
2023-05-13T07:03:03.591Z,16.30
2023-05-13T07:08:57.688Z,16.40
2023-05-13T07:14:50.816Z,16.40
2023-05-13T07:20:45.257Z,16.50
2023-05-13T07:26:38.779Z,16.60
2023-05-13T07:32:32.064Z,16.70
2023-05-13T07:38:26.424Z,16.90
2023-05-13T07:44:24.118Z,17.00
2023-05-13T07:50:17.786Z,17.10
2023-05-13T07:56:12.419Z,17.30
2023-05-13T08:02:06.012Z,17.40
2023-05-13T08:07:59.411Z,17.60
2023-05-13T08:13:53.954Z,17.70
2023-05-13T08:19:47.174Z,17.80
2023-05-13T08:25:40.474Z,18.00
2023-05-13T08:31:35.059Z,18.10
2023-05-13T08:37:28.452Z,18.30
2023-05-13T08:43:23.234Z,18.50
2023-05-13T08:49:18.164Z,18.60
2023-05-13T08:55:11.962Z,18.60
2023-05-13T09:01:06.442Z,18.80
2023-05-13T09:07:01.116Z,18.90
2023-05-13T09:12:55.129Z,18.90
2023-05-13T09:18:48.376Z,19.10
2023-05-13T09:24:55.824Z,19.20
2023-05-13T09:30:56.223Z,19.40
2023-05-13T09:36:57.249Z,19.50
2023-05-13T09:42:51.766Z,19.60
2023-05-13T09:48:45.078Z,19.80
2023-05-13T09:54:38.357Z,19.90
2023-05-13T10:00:33.937Z,20.20
2023-05-13T10:06:29.473Z,20.20
2023-05-13T10:12:25.082Z,20.50
2023-05-13T10:18:21.034Z,21.00
2023-05-13T10:24:14.779Z,21.20
2023-05-13T10:30:10.516Z,21.40
2023-05-13T10:36:18.484Z,21.70
2023-05-13T10:42:38.319Z,21.90
2023-05-13T10:48:40.909Z,22.10
2023-05-13T10:54:42.079Z,22.30
2023-05-13T11:00:35.808Z,22.50
2023-05-13T11:06:34.475Z,22.80
2023-05-13T11:12:29.030Z,23.00
2023-05-13T11:18:30.556Z,22.90
2023-05-13T11:24:24.270Z,23.10
2023-05-13T11:30:25.421Z,23.10
2023-05-13T11:36:18.395Z,23.10
2023-05-13T11:42:12.364Z,23.30
2023-05-13T11:48:22.324Z,23.30
2023-05-13T11:54:15.317Z,22.80
2023-05-13T12:00:10.350Z,22.60
2023-05-13T12:06:05.703Z,22.70
2023-05-13T12:11:59.025Z,22.80
2023-05-13T12:17:53.025Z,23.20
2023-05-13T12:23:47.718Z,23.50
2023-05-13T12:29:42.400Z,23.50
2023-05-13T12:35:35.378Z,23.80
2023-05-13T12:41:31.484Z,23.50
2023-05-13T12:47:24.805Z,23.20
2023-05-13T12:53:17.755Z,22.90
2023-05-13T12:59:13.349Z,22.80
2023-05-13T13:05:07.092Z,23.20
2023-05-13T13:11:01.411Z,23.50
2023-05-13T13:16:55.991Z,23.80
2023-05-13T13:22:49.269Z,23.90
2023-05-13T13:28:42.295Z,24.30
2023-05-13T13:34:37.243Z,24.10
2023-05-13T13:40:30.276Z,23.50
2023-05-13T13:46:23.523Z,23.50
2023-05-13T13:52:18.146Z,23.60
2023-05-13T13:58:11.339Z,23.50
2023-05-13T14:04:15.330Z,25.20
2023-05-13T14:10:10.945Z,26.20
2023-05-13T14:16:05.318Z,27.50
2023-05-13T14:21:58.493Z,26.20
2023-05-13T14:27:52.816Z,25.50
2023-05-13T14:33:45.829Z,24.90
2023-05-13T14:39:38.788Z,25.60
2023-05-13T14:45:33.118Z,25.40
2023-05-13T14:51:26.166Z,24.70
2023-05-13T14:57:19.286Z,24.50
2023-05-13T15:03:13.847Z,23.90
2023-05-13T15:09:07.536Z,23.90
2023-05-13T15:15:00.744Z,23.80
2023-05-13T15:20:55.113Z,23.60
2023-05-13T15:26:50.421Z,23.60
2023-05-13T15:32:43.427Z,23.80
2023-05-13T15:38:37.867Z,23.70
2023-05-13T15:44:30.793Z,23.40
2023-05-13T15:50:25.890Z,23.20
2023-05-13T15:56:21.536Z,23.40
2023-05-13T16:02:14.519Z,23.50
2023-05-13T16:08:07.796Z,23.00
2023-05-13T16:14:02.325Z,22.90
2023-05-13T16:19:55.484Z,22.90
2023-05-13T16:25:48.710Z,22.90
2023-05-13T16:31:43.080Z,23.00
2023-05-13T16:37:36.284Z,23.00
2023-05-13T16:43:29.505Z,22.90
2023-05-13T16:49:23.843Z,22.90
2023-05-13T16:55:16.897Z,22.90
2023-05-13T17:01:10.199Z,22.60
2023-05-13T17:07:04.954Z,22.50
2023-05-13T17:12:58.500Z,22.50
2023-05-13T17:18:52.396Z,22.40
2023-05-13T17:24:46.699Z,22.30
2023-05-13T17:30:39.876Z,22.20
2023-05-13T17:36:34.280Z,22.20
2023-05-13T17:42:30.434Z,22.10
2023-05-13T17:48:23.939Z,22.00
2023-05-13T17:54:16.959Z,21.90
2023-05-13T18:00:13.069Z,21.90
2023-05-13T18:06:06.638Z,21.90
2023-05-13T18:11:59.896Z,21.80
2023-05-13T18:17:54.451Z,21.70
2023-05-13T18:23:47.653Z,21.60
2023-05-13T18:29:40.877Z,21.60
2023-05-13T18:35:35.425Z,21.50
2023-05-13T18:41:28.622Z,21.40
2023-05-13T18:47:21.863Z,21.20
2023-05-13T18:53:16.413Z,21.00
2023-05-13T18:59:09.694Z,20.50
2023-05-13T19:05:02.953Z,20.50
2023-05-13T19:10:57.520Z,20.60
2023-05-13T19:16:50.734Z,20.30
2023-05-13T19:22:44.025Z,19.90
2023-05-13T19:28:39.437Z,19.80
2023-05-13T19:34:32.627Z,19.70
2023-05-13T19:40:26.268Z,19.50
2023-05-13T19:46:21.287Z,19.50
2023-05-13T19:52:14.371Z,19.50
2023-05-13T19:58:07.562Z,19.20
2023-05-13T20:04:02.205Z,18.90
2023-05-13T20:09:55.494Z,18.90
2023-05-13T20:15:49.767Z,18.80
2023-05-13T20:21:44.365Z,18.90
2023-05-13T20:27:37.546Z,18.60
2023-05-13T20:33:30.890Z,18.60
2023-05-13T20:39:25.644Z,18.30
2023-05-13T20:45:20.189Z,18.30
2023-05-13T20:51:13.404Z,18.30
2023-05-13T20:57:08.231Z,18.20
2023-05-13T21:03:01.855Z,18.20
2023-05-13T21:08:55.227Z,18.10
2023-05-13T21:14:49.809Z,18.20
2023-05-13T21:20:43.038Z,18.10
2023-05-13T21:26:36.342Z,17.90
2023-05-13T21:32:31.051Z,17.90
2023-05-13T21:38:24.454Z,18.20
2023-05-13T21:44:17.731Z,18.00
2023-05-13T21:50:12.497Z,18.10
2023-05-13T21:56:06.176Z,18.40
2023-05-13T22:01:59.230Z,18.50
2023-05-13T22:07:53.891Z,18.40
2023-05-13T22:13:47.123Z,18.50
2023-05-13T22:19:40.444Z,18.20
2023-05-13T22:25:35.141Z,18.20
2023-05-13T22:31:28.376Z,18.10
2023-05-13T22:37:21.566Z,18.00
2023-05-13T22:43:16.224Z,18.10
2023-05-13T22:49:10.518Z,18.00
2023-05-13T22:55:03.784Z,17.90
2023-05-13T23:00:58.387Z,17.90
2023-05-13T23:06:51.653Z,17.90
2023-05-13T23:12:44.880Z,17.80
2023-05-13T23:18:39.430Z,17.70
2023-05-13T23:24:32.730Z,17.60
2023-05-13T23:30:26.065Z,17.50
2023-05-13T23:36:20.702Z,17.30
2023-05-13T23:42:13.933Z,17.30
2023-05-13T23:48:07.362Z,17.20
2023-05-13T23:54:02.005Z,17.10
2023-05-13T23:59:55.320Z,16.90
